Time;durP1;ratioP1;P1;durP2;ratioP2;P2;SDS_P1;SDS_P2;PMS_P1;PMS_P2;Temp;Humidity;BMP_temperature;BMP_pressure;BME280_temperature;BME280_humidity;BME280_pressure;Samples;Min_cycle;Max_cycle;Signal;HPM_P1;HPM_P2
2021/04/08 00:00:09;;;;;;;11.00;2.53;;;;;;;;;;5031475;28;20229;-71
2021/04/08 00:02:54;;;;;;;10.47;3.00;;;;;;;;;;5032042;28;20447;-70
2021/04/08 00:05:38;;;;;;;14.53;3.17;;;;;;;;;;5018555;28;20207;-71
2021/04/08 00:08:22;;;;;;;9.07;2.70;;;;;;;;;;5012029;28;20497;-71
2021/04/08 00:11:08;;;;;;;11.43;2.90;;;;;;;;;;5026310;28;20446;-72
2021/04/08 00:13:52;;;;;;;9.70;3.03;;;;;;;;;;5031435;28;20459;-71
2021/04/08 00:16:37;;;;;;;10.97;2.70;;;;;;;;;;5031146;28;20283;-71
2021/04/08 00:19:22;;;;;;;10.30;2.90;;;;;;;;;;5026125;28;20442;-71
2021/04/08 00:22:06;;;;;;;10.60;3.00;;;;;;;;;;5011725;28;20198;-70
2021/04/08 00:24:51;;;;;;;11.20;3.10;;;;;;;;;;5012003;28;20210;-70
2021/04/08 00:27:35;;;;;;;7.43;3.20;;;;;;;;;;4991745;28;20211;-71
2021/04/08 00:30:21;;;;;;;10.90;3.03;;;;;;;;;;5002117;28;20210;-71
2021/04/08 00:33:06;;;;;;;11.97;3.27;;;;;;;;;;5031072;28;20328;-71
2021/04/08 00:35:50;;;;;;;9.27;2.80;;;;;;;;;;5030279;28;20240;-71
2021/04/08 00:38:35;;;;;;;11.33;3.13;;;;;;;;;;5031332;28;20201;-71
2021/04/08 00:41:19;;;;;;;11.57;3.27;;;;;;;;;;5016505;28;20207;-70
2021/04/08 00:44:04;;;;;;;11.33;4.03;;;;;;;;;;5010667;28;20508;-71
2021/04/08 00:46:48;;;;;;;7.80;3.07;;;;;;;;;;5011334;28;20226;-70
2021/04/08 00:49:34;;;;;;;12.80;3.20;;;;;;;;;;5011876;28;20431;-71
2021/04/08 00:52:18;;;;;;;8.30;3.50;;;;;;;;;;5011302;28;20713;-71
2021/04/08 00:55:03;;;;;;;9.67;3.40;;;;;;;;;;5010941;28;20685;-70
2021/04/08 00:57:48;;;;;;;9.50;3.70;;;;;;;;;;5011101;28;20222;-71
2021/04/08 01:00:32;;;;;;;10.70;3.50;;;;;;;;;;5011416;28;20195;-71
2021/04/08 01:03:18;;;;;;;12.03;3.87;;;;;;;;;;5011169;28;20238;-71
2021/04/08 01:06:04;;;;;;;13.20;3.80;;;;;;;;;;5010709;28;20439;-71
2021/04/08 01:08:49;;;;;;;10.67;3.67;;;;;;;;;;5011201;28;20218;-71
2021/04/08 01:11:34;;;;;;;10.90;3.43;;;;;;;;;;5011346;28;20193;-71
2021/04/08 01:14:18;;;;;;;11.77;3.43;;;;;;;;;;5011061;28;20467;-71
2021/04/08 01:17:06;;;;;;;10.63;3.23;;;;;;;;;;5010390;28;20276;-71
2021/04/08 01:20:08;;;;;;;11.17;3.23;;;;;;;;;;5011078;28;20829;-71
2021/04/08 01:23:08;;;;;;;8.37;3.03;;;;;;;;;;5011019;28;20248;-71
2021/04/08 01:26:05;;;;;;;7.90;2.60;;;;;;;;;;5010800;28;20211;-71
2021/04/08 01:28:57;;;;;;;9.10;3.00;;;;;;;;;;5010818;28;20371;-71
2021/04/08 01:31:43;;;;;;;10.70;3.60;;;;;;;;;;5013605;28;20768;-71
2021/04/08 01:34:30;;;;;;;10.67;2.87;;;;;;;;;;5015001;28;20677;-71
2021/04/08 01:37:16;;;;;;;7.93;3.10;;;;;;;;;;5014215;28;20230;-71
2021/04/08 01:40:02;;;;;;;8.77;2.50;;;;;;;;;;5014830;28;20202;-71
2021/04/08 01:42:47;;;;;;;12.33;2.87;;;;;;;;;;5014960;28;20276;-71
2021/04/08 01:45:32;;;;;;;9.70;4.50;;;;;;;;;;5014957;28;20415;-71
2021/04/08 01:48:18;;;;;;;12.00;6.03;;;;;;;;;;5014482;28;20281;-71
2021/04/08 01:51:04;;;;;;;9.17;4.23;;;;;;;;;;5014638;28;20416;-71
2021/04/08 01:53:50;;;;;;;7.83;2.73;;;;;;;;;;5014487;28;20230;-71
2021/04/08 01:56:36;;;;;;;5.30;1.70;;;;;;;;;;5014475;28;20589;-71
2021/04/08 01:59:20;;;;;;;6.13;1.87;;;;;;;;;;5014500;28;20420;-71
2021/04/08 02:02:05;;;;;;;6.93;2.20;;;;;;;;;;5014930;28;20691;-71
2021/04/08 02:04:50;;;;;;;8.80;4.33;;;;;;;;;;5014275;28;20202;-71
2021/04/08 02:07:35;;;;;;;7.23;4.20;;;;;;;;;;5013889;28;20226;-72
2021/04/08 02:10:20;;;;;;;8.40;2.93;;;;;;;;;;5019461;28;20223;-71
2021/04/08 02:13:06;;;;;;;8.03;2.40;;;;;;;;;;5014381;28;20639;-71
2021/04/08 02:15:51;;;;;;;7.90;2.27;;;;;;;;;;5014038;28;20645;-71
2021/04/08 02:18:36;;;;;;;7.73;2.40;;;;;;;;;;5014238;28;20705;-71
2021/04/08 02:21:22;;;;;;;8.88;2.85;;;;;;;;;;5028903;28;20421;-71
2021/04/08 02:24:07;;;;;;;7.77;2.43;;;;;;;;;;5032925;28;20218;-70
2021/04/08 02:26:51;;;;;;;7.50;2.43;;;;;;;;;;5033005;28;20229;-71
2021/04/08 02:29:36;;;;;;;6.57;2.30;;;;;;;;;;5031412;28;20677;-71
2021/04/08 02:32:21;;;;;;;8.63;2.77;;;;;;;;;;5033305;28;20226;-71
2021/04/08 02:35:07;;;;;;;8.87;2.40;;;;;;;;;;5031424;28;20201;-70
2021/04/08 02:37:52;;;;;;;7.23;2.40;;;;;;;;;;5032975;28;20441;-71
2021/04/08 02:40:37;;;;;;;6.97;2.30;;;;;;;;;;5032978;28;20747;-71
2021/04/08 02:43:21;;;;;;;6.30;2.57;;;;;;;;;;5032797;28;20221;-71
2021/04/08 02:46:06;;;;;;;5.07;2.10;;;;;;;;;;5029294;28;21201;-71
2021/04/08 02:48:51;;;;;;;7.10;2.70;;;;;;;;;;5032573;28;20222;-71
2021/04/08 02:51:39;;;;;;;4.90;2.40;;;;;;;;;;5033355;28;20215;-71
2021/04/08 02:54:28;;;;;;;7.47;2.40;;;;;;;;;;5030398;28;20617;-71
2021/04/08 02:57:16;;;;;;;8.27;2.33;;;;;;;;;;5032623;28;20325;-71
2021/04/08 03:00:05;;;;;;;9.03;2.73;;;;;;;;;;5032184;28;20634;-71
2021/04/08 03:02:51;;;;;;;6.17;2.07;;;;;;;;;;5033230;28;20217;-71
2021/04/08 03:05:39;;;;;;;5.53;2.43;;;;;;;;;;5020729;28;20266;-71
2021/04/08 03:08:25;;;;;;;11.70;4.70;;;;;;;;;;5012921;28;20475;-70
2021/04/08 03:11:12;;;;;;;14.37;7.53;;;;;;;;;;5028247;28;20210;-71
2021/04/08 03:13:58;;;;;;;13.83;8.20;;;;;;;;;;5028476;28;20221;-71
2021/04/08 03:16:43;;;;;;;12.90;7.97;;;;;;;;;;5029895;28;20256;-71
2021/04/08 03:19:28;;;;;;;10.17;6.40;;;;;;;;;;5031363;28;20226;-71
2021/04/08 03:22:13;;;;;;;7.73;5.10;;;;;;;;;;5013032;28;20230;-71
2021/04/08 03:24:58;;;;;;;7.43;3.70;;;;;;;;;;5013275;28;20569;-71
2021/04/08 03:27:44;;;;;;;11.67;3.80;;;;;;;;;;5012720;28;20210;-71
2021/04/08 03:30:28;;;;;;;10.30;2.80;;;;;;;;;;5012683;28;20257;-71
2021/04/08 03:33:14;;;;;;;6.97;2.87;;;;;;;;;;5012836;28;20811;-71
2021/04/08 03:35:58;;;;;;;8.33;2.77;;;;;;;;;;5023770;28;20218;-71
2021/04/08 03:38:43;;;;;;;9.33;3.80;;;;;;;;;;5032696;28;20349;-71
2021/04/08 03:41:28;;;;;;;40.53;35.27;;;;;;;;;;5014852;28;20206;-71
2021/04/08 03:44:14;;;;;;;19.50;17.43;;;;;;;;;;5020117;28;20238;-71
2021/04/08 03:46:59;;;;;;;11.93;5.17;;;;;;;;;;5011914;28;20242;-71
2021/04/08 03:49:47;;;;;;;8.63;3.80;;;;;;;;;;5012572;28;20624;-71
2021/04/08 03:52:31;;;;;;;7.97;3.03;;;;;;;;;;5015982;28;20230;-71
2021/04/08 03:55:16;;;;;;;8.70;3.30;;;;;;;;;;4991990;28;20810;-71
2021/04/08 03:58:01;;;;;;;7.50;2.40;;;;;;;;;;4998453;28;20231;-71
2021/04/08 04:00:46;;;;;;;9.18;3.50;;;;;;;;;;4998245;28;20479;-71
2021/04/08 04:03:31;;;;;;;8.87;3.30;;;;;;;;;;5024022;28;20589;-71
2021/04/08 04:06:16;;;;;;;8.60;3.00;;;;;;;;;;5011603;28;20223;-71
2021/04/08 04:09:01;;;;;;;8.60;3.20;;;;;;;;;;5012069;28;20267;-71
2021/04/08 04:11:47;;;;;;;6.33;2.70;;;;;;;;;;5012136;28;20270;-71
2021/04/08 04:14:32;;;;;;;10.73;2.90;;;;;;;;;;5011892;28;20193;-71
2021/04/08 04:17:24;;;;;;;5.37;2.80;;;;;;;;;;5011308;28;20262;-71
2021/04/08 04:20:09;;;;;;;6.47;2.90;;;;;;;;;;5012016;28;20203;-72
2021/04/08 04:22:54;;;;;;;6.87;2.97;;;;;;;;;;5012105;28;20289;-71
2021/04/08 04:25:38;;;;;;;7.20;3.17;;;;;;;;;;5012068;28;20701;-71
2021/04/08 04:28:23;;;;;;;4.00;2.70;;;;;;;;;;5011733;28;20323;-71
2021/04/08 04:31:07;;;;;;;7.03;2.77;;;;;;;;;;5011591;28;20670;-71
2021/04/08 04:33:53;;;;;;;5.47;2.60;;;;;;;;;;5011750;28;20222;-71
2021/04/08 04:36:37;;;;;;;10.37;3.30;;;;;;;;;;5010864;28;20226;-71
2021/04/08 04:39:22;;;;;;;7.37;3.00;;;;;;;;;;5011787;28;20202;-71
2021/04/08 04:42:06;;;;;;;5.43;2.83;;;;;;;;;;5011416;28;20750;-71
2021/04/08 04:44:51;;;;;;;6.00;3.60;;;;;;;;;;5011618;28;20301;-71
2021/04/08 04:47:38;;;;;;;8.50;3.10;;;;;;;;;;5010164;28;20206;-71
2021/04/08 04:50:25;;;;;;;9.25;4.10;;;;;;;;;;5007655;28;20431;-71
2021/04/08 04:53:09;;;;;;;8.50;4.60;;;;;;;;;;5010289;28;20226;-71
2021/04/08 04:55:54;;;;;;;8.77;4.80;;;;;;;;;;5010882;28;20249;-71
2021/04/08 04:58:38;;;;;;;6.57;4.00;;;;;;;;;;5007730;28;20635;-71
2021/04/08 05:01:23;;;;;;;9.73;4.70;;;;;;;;;;4999952;28;20226;-71
2021/04/08 05:04:08;;;;;;;11.27;5.07;;;;;;;;;;5011076;28;20230;-71
2021/04/08 05:06:53;;;;;;;10.23;4.80;;;;;;;;;;5006529;28;20207;-71
2021/04/08 05:09:37;;;;;;;12.90;5.17;;;;;;;;;;4991495;28;20496;-71
2021/04/08 05:12:22;;;;;;;13.07;5.47;;;;;;;;;;4991460;28;20269;-71
2021/04/08 05:15:07;;;;;;;12.80;6.70;;;;;;;;;;4991349;28;20207;-71
2021/04/08 05:17:51;;;;;;;15.43;7.10;;;;;;;;;;4990925;28;20256;-71
2021/04/08 05:20:35;;;;;;;11.93;5.93;;;;;;;;;;5008136;28;20254;-71
2021/04/08 05:23:21;;;;;;;11.17;5.83;;;;;;;;;;5011427;28;20218;-71
2021/04/08 05:26:05;;;;;;;12.82;7.63;;;;;;;;;;5009926;28;20922;-71
2021/04/08 05:28:50;;;;;;;15.00;7.03;;;;;;;;;;5010713;28;20226;-71
2021/04/08 05:31:34;;;;;;;11.30;7.07;;;;;;;;;;5011146;28;20218;-71
2021/04/08 05:34:19;;;;;;;11.17;6.53;;;;;;;;;;5010868;28;20203;-71
2021/04/08 05:37:04;;;;;;;13.73;6.60;;;;;;;;;;5010256;28;20595;-71
2021/04/08 05:39:49;;;;;;;13.37;7.43;;;;;;;;;;5010967;28;20287;-71
2021/04/08 05:42:34;;;;;;;12.03;6.73;;;;;;;;;;5010559;28;20269;-71
2021/04/08 05:45:20;;;;;;;8.10;6.37;;;;;;;;;;4999807;28;20215;-71
2021/04/08 05:48:05;;;;;;;11.80;6.60;;;;;;;;;;5010204;28;20660;-72
2021/04/08 05:50:49;;;;;;;10.47;6.70;;;;;;;;;;5002139;28;20335;-72
2021/04/08 05:53:34;;;;;;;11.60;6.73;;;;;;;;;;5010019;28;20249;-72
2021/04/08 05:56:19;;;;;;;11.80;6.80;;;;;;;;;;5007827;28;20335;-72
2021/04/08 05:59:03;;;;;;;10.80;7.00;;;;;;;;;;5010508;28;20213;-71
2021/04/08 06:01:48;;;;;;;9.90;6.27;;;;;;;;;;5015182;28;20199;-70
2021/04/08 06:04:33;;;;;;;9.93;6.20;;;;;;;;;;5010205;28;20214;-70
2021/04/08 06:07:17;;;;;;;13.10;6.50;;;;;;;;;;5007694;28;21056;-72
2021/04/08 06:10:03;;;;;;;13.93;6.40;;;;;;;;;;5002289;28;20342;-69
2021/04/08 06:12:49;;;;;;;9.73;5.93;;;;;;;;;;5010171;28;20709;-70
2021/04/08 06:15:34;;;;;;;11.73;7.78;;;;;;;;;;5009108;28;20782;-68
2021/04/08 06:18:19;;;;;;;10.63;6.47;;;;;;;;;;5012279;28;20206;-69
2021/04/08 06:21:03;;;;;;;11.70;6.17;;;;;;;;;;5013900;28;20249;-71
2021/04/08 06:23:47;;;;;;;10.20;6.50;;;;;;;;;;5012591;28;20230;-70
2021/04/08 06:26:32;;;;;;;9.30;6.23;;;;;;;;;;5013420;28;20283;-70
2021/04/08 06:29:17;;;;;;;8.45;6.00;;;;;;;;;;5011978;28;20451;-70
2021/04/08 06:32:04;;;;;;;11.40;5.67;;;;;;;;;;5013055;28;20246;-71
2021/04/08 06:34:48;;;;;;;8.87;6.30;;;;;;;;;;5014128;28;20246;-70
2021/04/08 06:37:33;;;;;;;10.33;6.17;;;;;;;;;;5008044;28;20270;-70
2021/04/08 06:40:17;;;;;;;7.50;5.47;;;;;;;;;;5006732;28;20275;-71
2021/04/08 06:43:03;;;;;;;9.50;6.30;;;;;;;;;;5011266;28;20290;-73
2021/04/08 06:45:49;;;;;;;8.53;5.60;;;;;;;;;;5013565;28;20267;-70
2021/04/08 06:48:38;;;;;;;6.63;4.87;;;;;;;;;;5000256;28;20262;-72
2021/04/08 06:51:23;;;;;;;7.00;5.30;;;;;;;;;;5012981;28;20762;-70
2021/04/08 06:54:08;;;;;;;8.53;6.50;;;;;;;;;;5012787;28;20688;-73
2021/04/08 06:56:53;;;;;;;7.73;5.33;;;;;;;;;;5010478;28;20768;-69
2021/04/08 06:59:38;;;;;;;7.07;5.10;;;;;;;;;;5012404;28;20245;-69
2021/04/08 07:02:23;;;;;;;8.65;5.32;;;;;;;;;;5011676;28;20502;-70
2021/04/08 07:05:08;;;;;;;6.40;5.03;;;;;;;;;;5013524;28;20281;-70
2021/04/08 07:07:52;;;;;;;7.27;4.33;;;;;;;;;;5012334;28;20337;-72
2021/04/08 07:10:39;;;;;;;8.20;4.63;;;;;;;;;;5013330;28;20246;-71
2021/04/08 07:13:26;;;;;;;5.80;4.10;;;;;;;;;;5008103;28;20271;-70
2021/04/08 07:16:14;;;;;;;7.40;4.57;;;;;;;;;;4998151;28;20547;-69
2021/04/08 07:18:59;;;;;;;7.00;4.27;;;;;;;;;;5012084;28;20218;-71
2021/04/08 07:21:44;;;;;;;6.80;3.83;;;;;;;;;;5012577;28;20203;-76
2021/04/08 07:24:28;;;;;;;4.90;3.70;;;;;;;;;;5009004;28;20563;-71
2021/04/08 07:27:16;;;;;;;8.23;3.67;;;;;;;;;;5002758;28;20405;-71
2021/04/08 07:30:01;;;;;;;5.83;3.70;;;;;;;;;;5010950;28;20234;-71
2021/04/08 07:32:57;;;;;;;4.53;3.93;;;;;;;;;;5011469;28;20306;-70
2021/04/08 07:35:42;;;;;;;4.37;3.80;;;;;;;;;;4993045;28;20219;-71
2021/04/08 07:38:26;;;;;;;6.40;3.80;;;;;;;;;;5011909;28;20206;-71
2021/04/08 07:41:11;;;;;;;6.03;4.17;;;;;;;;;;5012542;28;20202;-70
2021/04/08 07:43:59;;;;;;;8.07;4.57;;;;;;;;;;5011754;28;20229;-71
2021/04/08 07:46:44;;;;;;;4.80;4.23;;;;;;;;;;5011839;28;20222;-70
2021/04/08 07:49:29;;;;;;;8.25;6.18;;;;;;;;;;5011054;28;20801;-70
2021/04/08 07:52:19;;;;;;;7.47;5.87;;;;;;;;;;5011813;28;20229;-70
2021/04/08 07:55:05;;;;;;;8.10;5.63;;;;;;;;;;5010913;28;20897;-70
2021/04/08 07:58:00;;;;;;;7.17;4.73;;;;;;;;;;5004933;28;20302;-71
2021/04/08 08:00:45;;;;;;;5.47;4.20;;;;;;;;;;5011844;28;20554;-72
2021/04/08 08:03:30;;;;;;;6.10;4.00;;;;;;;;;;5010378;28;20460;-72
2021/04/08 08:06:15;;;;;;;6.17;3.87;;;;;;;;;;5011102;28;20206;-72
2021/04/08 08:09:05;;;;;;;5.10;3.90;;;;;;;;;;5007212;28;20269;-71
2021/04/08 08:11:50;;;;;;;4.77;3.50;;;;;;;;;;4992508;28;20204;-71
2021/04/08 08:14:35;;;;;;;5.67;3.87;;;;;;;;;;5003212;28;20222;-71
2021/04/08 08:17:20;;;;;;;6.20;3.17;;;;;;;;;;5011328;28;20231;-72
2021/04/08 08:20:05;;;;;;;7.20;3.53;;;;;;;;;;5011595;28;20203;-71
2021/04/08 08:22:49;;;;;;;6.33;3.47;;;;;;;;;;5006438;28;20227;-72
2021/04/08 08:25:36;;;;;;;5.10;3.40;;;;;;;;;;4992310;28;20231;-72
2021/04/08 08:28:32;;;;;;;4.70;3.47;;;;;;;;;;4991319;28;20203;-73
2021/04/08 08:31:32;;;;;;;6.63;3.10;;;;;;;;;;4992070;28;20246;-73
2021/04/08 08:34:17;;;;;;;5.00;3.60;;;;;;;;;;4995615;28;20455;-73
2021/04/08 08:37:03;;;;;;;6.57;3.20;;;;;;;;;;5008512;28;20226;-76
2021/04/08 08:39:48;;;;;;;4.57;3.10;;;;;;;;;;5006748;28;20231;-76
2021/04/08 08:42:34;;;;;;;8.17;3.73;;;;;;;;;;5008204;28;20270;-74
2021/04/08 08:45:19;;;;;;;6.27;3.10;;;;;;;;;;5011476;28;20226;-73
2021/04/08 08:48:06;;;;;;;6.72;3.90;;;;;;;;;;4997412;28;20425;-73
2021/04/08 08:50:51;;;;;;;4.70;3.67;;;;;;;;;;4991951;28;20219;-73
2021/04/08 08:53:35;;;;;;;5.13;3.20;;;;;;;;;;4991495;28;20270;-73
2021/04/08 08:56:21;;;;;;;5.40;3.53;;;;;;;;;;4991077;28;20206;-72
2021/04/08 08:59:06;;;;;;;7.53;4.70;;;;;;;;;;5007166;28;20290;-72
2021/04/08 09:01:52;;;;;;;5.83;4.10;;;;;;;;;;5011026;28;20308;-74
2021/04/08 09:04:36;;;;;;;5.80;3.80;;;;;;;;;;5010775;28;20680;-72
2021/04/08 09:07:21;;;;;;;7.17;4.10;;;;;;;;;;5010747;28;20346;-73
2021/04/08 09:10:06;;;;;;;5.97;4.03;;;;;;;;;;5010934;28;20744;-73
2021/04/08 09:12:50;;;;;;;8.30;4.27;;;;;;;;;;5011278;28;20282;-74
2021/04/08 09:15:36;;;;;;;6.47;4.20;;;;;;;;;;5011543;28;20270;-73
2021/04/08 09:18:22;;;;;;;6.43;4.72;;;;;;;;;;5009968;28;20491;-73
2021/04/08 09:21:07;;;;;;;7.50;4.80;;;;;;;;;;5010620;28;20217;-74
2021/04/08 09:24:09;;;;;;;6.43;4.27;;;;;;;;;;5009761;28;20683;-72
2021/04/08 09:26:56;;;;;;;6.37;4.70;;;;;;;;;;5007943;28;20256;-77
2021/04/08 09:29:48;;;;;;;7.63;4.67;;;;;;;;;;5010300;28;20202;-78
2021/04/08 09:32:34;;;;;;;6.10;4.70;;;;;;;;;;5010391;28;20958;-77
2021/04/08 09:35:20;;;;;;;6.90;4.40;;;;;;;;;;5010687;28;20257;-74
2021/04/08 09:38:14;;;;;;;8.70;4.90;;;;;;;;;;5009331;28;20606;-75
2021/04/08 09:41:00;;;;;;;6.23;4.53;;;;;;;;;;5021186;28;20661;-73
2021/04/08 09:43:45;;;;;;;5.83;4.97;;;;;;;;;;5011110;28;20226;-71
2021/04/08 09:46:36;;;;;;;5.87;4.67;;;;;;;;;;4990228;28;20203;-73
2021/04/08 09:49:40;;;;;;;7.87;5.07;;;;;;;;;;4991361;28;20273;-73
2021/04/08 09:52:26;;;;;;;5.97;4.90;;;;;;;;;;4992375;28;20255;-73
2021/04/08 09:55:10;;;;;;;6.00;5.10;;;;;;;;;;4994870;28;20718;-71
2021/04/08 09:57:59;;;;;;;5.20;4.70;;;;;;;;;;5008336;28;20261;-71
2021/04/08 10:00:44;;;;;;;7.60;4.57;;;;;;;;;;5014341;28;20202;-72
2021/04/08 10:03:30;;;;;;;7.40;5.20;;;;;;;;;;5014514;28;20234;-71
2021/04/08 10:06:15;;;;;;;7.07;5.10;;;;;;;;;;5013795;28;20206;-73
2021/04/08 10:09:06;;;;;;;6.53;5.00;;;;;;;;;;5014574;28;20242;-73
2021/04/08 10:11:50;;;;;;;5.93;5.23;;;;;;;;;;5014412;28;20222;-73
2021/04/08 10:14:35;;;;;;;5.63;5.13;;;;;;;;;;5014368;28;20246;-74
2021/04/08 10:17:20;;;;;;;6.23;5.47;;;;;;;;;;5013533;28;20245;-73
2021/04/08 10:20:05;;;;;;;7.05;5.47;;;;;;;;;;5013060;28;20423;-73
2021/04/08 10:22:50;;;;;;;6.87;5.50;;;;;;;;;;5013850;28;20282;-74
2021/04/08 10:25:35;;;;;;;5.77;5.27;;;;;;;;;;5014158;28;20237;-75
2021/04/08 10:28:19;;;;;;;7.13;5.80;;;;;;;;;;5013919;28;20253;-74
2021/04/08 10:31:17;;;;;;;6.33;5.17;;;;;;;;;;5007741;28;20206;-73
2021/04/08 10:34:05;;;;;;;5.93;4.70;;;;;;;;;;5013791;28;20701;-74
2021/04/08 10:36:54;;;;;;;7.03;5.43;;;;;;;;;;4994769;28;20292;-72
2021/04/08 10:39:39;;;;;;;6.00;5.40;;;;;;;;;;5013887;28;20210;-74
2021/04/08 10:42:25;;;;;;;7.17;5.17;;;;;;;;;;5011783;28;20246;-72
2021/04/08 10:45:11;;;;;;;6.10;5.17;;;;;;;;;;5005821;28;20635;-71
2021/04/08 10:47:55;;;;;;;6.77;5.40;;;;;;;;;;5010896;28;20202;-72
2021/04/08 10:50:40;;;;;;;5.90;5.30;;;;;;;;;;5013693;28;20250;-71
2021/04/08 10:53:25;;;;;;;6.07;4.90;;;;;;;;;;5012939;28;20262;-70
2021/04/08 10:56:10;;;;;;;7.43;5.70;;;;;;;;;;5013101;28;20218;-71
2021/04/08 10:59:13;;;;;;;7.33;5.87;;;;;;;;;;5013398;28;20210;-71
2021/04/08 11:01:58;;;;;;;6.57;5.90;;;;;;;;;;5013429;28;20270;-72
2021/04/08 11:04:43;;;;;;;6.40;5.75;;;;;;;;;;5011909;28;20410;-71
2021/04/08 11:07:27;;;;;;;6.73;5.40;;;;;;;;;;5012882;28;20693;-71
2021/04/08 11:10:13;;;;;;;6.40;5.80;;;;;;;;;;5002431;28;20211;-73
2021/04/08 11:12:58;;;;;;;7.87;5.57;;;;;;;;;;4993321;28;20271;-72
2021/04/08 11:15:44;;;;;;;6.50;5.90;;;;;;;;;;4993516;28;20219;-71
2021/04/08 11:18:29;;;;;;;6.57;5.83;;;;;;;;;;4993103;28;20231;-71
2021/04/08 11:21:14;;;;;;;7.13;6.40;;;;;;;;;;4993303;28;20208;-72
2021/04/08 11:23:58;;;;;;;7.17;6.20;;;;;;;;;;4993242;28;20677;-72
2021/04/08 11:26:46;;;;;;;8.93;6.20;;;;;;;;;;4992725;28;20211;-73
2021/04/08 11:29:31;;;;;;;6.83;6.13;;;;;;;;;;4992976;28;20239;-73
2021/04/08 11:32:17;;;;;;;7.43;6.53;;;;;;;;;;5000173;28;20245;-72
2021/04/08 11:35:01;;;;;;;6.73;6.10;;;;;;;;;;5032418;28;20202;-73
2021/04/08 11:37:45;;;;;;;8.07;6.87;;;;;;;;;;5031687;28;20665;-72
2021/04/08 11:40:30;;;;;;;8.40;6.80;;;;;;;;;;5032319;28;20214;-72
2021/04/08 11:43:19;;;;;;;7.97;6.50;;;;;;;;;;5013255;28;20630;-73
2021/04/08 11:46:04;;;;;;;8.27;6.43;;;;;;;;;;5011726;28;20201;-72
2021/04/08 11:48:49;;;;;;;7.47;6.77;;;;;;;;;;5012661;28;20681;-72
2021/04/08 11:51:34;;;;;;;7.23;6.53;;;;;;;;;;5011922;28;20302;-72
2021/04/08 11:54:20;;;;;;;7.67;6.90;;;;;;;;;;5012410;28;20238;-71
2021/04/08 11:57:04;;;;;;;7.73;6.97;;;;;;;;;;5011728;28;20265;-72
2021/04/08 11:59:49;;;;;;;8.00;7.23;;;;;;;;;;5012502;28;20199;-71
2021/04/08 12:02:34;;;;;;;7.27;6.63;;;;;;;;;;5012493;28;20289;-72
2021/04/08 12:05:19;;;;;;;8.37;7.03;;;;;;;;;;5011844;28;20253;-72
2021/04/08 12:08:04;;;;;;;7.93;7.17;;;;;;;;;;5006810;28;20649;-72
2021/04/08 12:10:56;;;;;;;8.80;8.00;;;;;;;;;;5004657;28;20206;-73
2021/04/08 12:13:43;;;;;;;10.70;7.67;;;;;;;;;;5003736;28;20251;-72
2021/04/08 12:16:28;;;;;;;9.83;7.93;;;;;;;;;;5010494;28;20617;-72
2021/04/08 12:19:22;;;;;;;8.53;7.63;;;;;;;;;;5011947;28;20693;-73
2021/04/08 12:22:09;;;;;;;10.63;7.67;;;;;;;;;;5010579;28;20223;-71
2021/04/08 12:25:10;;;;;;;9.73;8.70;;;;;;;;;;5011954;28;20206;-72
2021/04/08 12:27:56;;;;;;;10.13;8.30;;;;;;;;;;5011103;28;20322;-72
2021/04/08 12:30:47;;;;;;;8.93;7.50;;;;;;;;;;5011786;28;20202;-71
2021/04/08 12:33:32;;;;;;;11.37;8.00;;;;;;;;;;5011377;28;20265;-72
2021/04/08 12:36:16;;;;;;;9.50;8.60;;;;;;;;;;5009774;28;20431;-74
2021/04/08 12:39:01;;;;;;;9.40;8.50;;;;;;;;;;5009730;28;20220;-74
2021/04/08 12:41:46;;;;;;;9.80;9.00;;;;;;;;;;4993883;28;20245;-72
2021/04/08 12:44:30;;;;;;;8.93;8.03;;;;;;;;;;5010868;28;20701;-74
2021/04/08 12:47:15;;;;;;;8.70;7.90;;;;;;;;;;5000725;28;20207;-73
2021/04/08 12:50:00;;;;;;;8.80;7.30;;;;;;;;;;5010146;28;20246;-72
2021/04/08 12:52:44;;;;;;;7.70;7.10;;;;;;;;;;5011280;28;20238;-72
2021/04/08 12:55:29;;;;;;;9.70;8.10;;;;;;;;;;5011678;28;20203;-73
2021/04/08 12:58:14;;;;;;;8.63;7.93;;;;;;;;;;5010618;28;20281;-73
2021/04/08 13:00:58;;;;;;;8.27;7.50;;;;;;;;;;5011405;28;20211;-73
2021/04/08 13:03:43;;;;;;;8.20;7.37;;;;;;;;;;5011157;28;20203;-73
2021/04/08 13:06:28;;;;;;;8.20;7.23;;;;;;;;;;5010795;28;20671;-71
2021/04/08 13:09:12;;;;;;;7.82;7.05;;;;;;;;;;5010420;28;20962;-71
2021/04/08 13:11:58;;;;;;;8.83;8.03;;;;;;;;;;5010255;28;20362;-73
2021/04/08 13:14:43;;;;;;;9.40;7.73;;;;;;;;;;5011002;28;20210;-70
2021/04/08 13:17:27;;;;;;;9.13;8.23;;;;;;;;;;5003808;28;20295;-70
2021/04/08 13:20:13;;;;;;;8.53;7.73;;;;;;;;;;4991142;28;20211;-70
2021/04/08 13:22:58;;;;;;;8.48;7.78;;;;;;;;;;4991269;28;20454;-70
2021/04/08 13:25:43;;;;;;;8.70;7.90;;;;;;;;;;5005204;28;20241;-70
2021/04/08 13:28:28;;;;;;;9.43;8.53;;;;;;;;;;5014576;28;20226;-69
2021/04/08 13:31:12;;;;;;;9.33;8.47;;;;;;;;;;5009961;28;20281;-70
2021/04/08 13:33:57;;;;;;;8.60;8.00;;;;;;;;;;5031138;28;20256;-69
2021/04/08 13:36:42;;;;;;;10.40;9.50;;;;;;;;;;5031788;28;20202;-69
2021/04/08 13:39:26;;;;;;;9.43;8.43;;;;;;;;;;4995295;28;20208;-70
2021/04/08 13:42:10;;;;;;;9.77;8.37;;;;;;;;;;4995079;28;20624;-70
2021/04/08 13:44:56;;;;;;;10.87;8.00;;;;;;;;;;4995402;28;20208;-69
2021/04/08 13:47:41;;;;;;;9.83;8.93;;;;;;;;;;4994652;28;20207;-70
2021/04/08 13:50:26;;;;;;;10.13;9.17;;;;;;;;;;4994931;28;20258;-69
2021/04/08 13:53:10;;;;;;;9.57;8.53;;;;;;;;;;4995084;28;20886;-70
2021/04/08 13:55:55;;;;;;;9.07;8.27;;;;;;;;;;5006535;28;20266;-69
2021/04/08 13:58:39;;;;;;;9.47;8.47;;;;;;;;;;5014064;28;20226;-69
2021/04/08 14:01:25;;;;;;;9.23;8.50;;;;;;;;;;5014328;28;20709;-69
2021/04/08 14:04:10;;;;;;;9.43;8.47;;;;;;;;;;5013967;28;20207;-69
2021/04/08 14:06:54;;;;;;;9.70;8.63;;;;;;;;;;5012116;28;20272;-70
2021/04/08 14:09:38;;;;;;;8.70;8.10;;;;;;;;;;5012364;28;20408;-69
2021/04/08 14:12:23;;;;;;;9.13;8.30;;;;;;;;;;5013555;28;20250;-69
2021/04/08 14:15:08;;;;;;;8.97;8.27;;;;;;;;;;5014216;28;20202;-69
2021/04/08 14:17:53;;;;;;;9.70;8.90;;;;;;;;;;5013074;28;20240;-70
2021/04/08 14:20:39;;;;;;;9.80;9.03;;;;;;;;;;5014165;28;20220;-70
2021/04/08 14:23:24;;;;;;;9.70;8.93;;;;;;;;;;5013594;28;20218;-70
2021/04/08 14:26:08;;;;;;;10.00;9.20;;;;;;;;;;5013520;28;20266;-69
2021/04/08 14:28:53;;;;;;;10.20;9.40;;;;;;;;;;5013721;28;20206;-69
2021/04/08 14:31:37;;;;;;;10.10;9.10;;;;;;;;;;5007895;28;20242;-70
2021/04/08 14:34:22;;;;;;;10.67;9.67;;;;;;;;;;4994239;28;20209;-69
2021/04/08 14:37:07;;;;;;;10.67;9.77;;;;;;;;;;4993910;28;20717;-69
2021/04/08 14:39:51;;;;;;;11.20;10.20;;;;;;;;;;4993777;28;20726;-69
2021/04/08 14:42:37;;;;;;;10.47;9.63;;;;;;;;;;4994125;28;20251;-69
2021/04/08 14:45:22;;;;;;;11.00;10.00;;;;;;;;;;4994133;28;20670;-69
2021/04/08 14:48:07;;;;;;;11.40;10.40;;;;;;;;;;4993204;28;20247;-69
2021/04/08 14:50:57;;;;;;;11.47;10.47;;;;;;;;;;4994046;28;20283;-70
2021/04/08 14:53:41;;;;;;;12.80;11.70;;;;;;;;;;4997493;28;20208;-69
2021/04/08 14:56:26;;;;;;;12.30;11.20;;;;;;;;;;5010837;28;20420;-69
2021/04/08 14:59:10;;;;;;;11.60;10.80;;;;;;;;;;5011958;28;20275;-69
2021/04/08 15:01:55;;;;;;;11.67;10.73;;;;;;;;;;5013280;28;20650;-69
2021/04/08 15:04:39;;;;;;;12.97;11.97;;;;;;;;;;5013256;28;20226;-69
2021/04/08 15:07:25;;;;;;;12.87;11.77;;;;;;;;;;5012792;28;20251;-70
2021/04/08 15:10:10;;;;;;;12.50;11.53;;;;;;;;;;5013018;28;20215;-69
2021/04/08 15:12:54;;;;;;;12.17;11.07;;;;;;;;;;5012868;28;20218;-69
2021/04/08 15:15:38;;;;;;;13.47;12.10;;;;;;;;;;5012915;28;20623;-69
2021/04/08 15:18:23;;;;;;;12.90;11.90;;;;;;;;;;5012789;28;20318;-70
2021/04/08 15:21:08;;;;;;;13.43;12.33;;;;;;;;;;5012706;28;20249;-69
2021/04/08 15:23:53;;;;;;;14.33;12.83;;;;;;;;;;5012864;28;20210;-69
2021/04/08 15:26:38;;;;;;;14.20;12.90;;;;;;;;;;5012345;28;20203;-69
2021/04/08 15:29:22;;;;;;;14.27;13.17;;;;;;;;;;5012392;28;20230;-69
2021/04/08 15:32:07;;;;;;;13.37;12.37;;;;;;;;;;5025562;28;20363;-69
2021/04/08 15:34:51;;;;;;;13.57;12.37;;;;;;;;;;5028844;28;20230;-70
2021/04/08 15:37:36;;;;;;;14.60;13.30;;;;;;;;;;5023717;28;20226;-70
2021/04/08 15:40:22;;;;;;;13.35;12.35;;;;;;;;;;5012102;28;20419;-69
2021/04/08 15:43:06;;;;;;;14.27;13.00;;;;;;;;;;5012532;28;20223;-69
2021/04/08 15:45:51;;;;;;;13.90;12.90;;;;;;;;;;5012429;28;20571;-69
2021/04/08 15:48:35;;;;;;;14.77;13.47;;;;;;;;;;5029808;28;20199;-69
2021/04/08 15:51:20;;;;;;;13.90;12.70;;;;;;;;;;5031994;28;20304;-69
2021/04/08 15:54:05;;;;;;;15.13;13.93;;;;;;;;;;5012846;28;20219;-69
2021/04/08 15:56:50;;;;;;;15.23;14.00;;;;;;;;;;5014000;28;20215;-69
2021/04/08 15:59:34;;;;;;;15.87;14.57;;;;;;;;;;5031981;28;20257;-69
2021/04/08 16:02:19;;;;;;;16.17;14.87;;;;;;;;;;5018326;28;20851;-69
2021/04/08 16:05:04;;;;;;;16.07;14.67;;;;;;;;;;5015812;28;20211;-69
2021/04/08 16:07:49;;;;;;;16.17;14.83;;;;;;;;;;5011145;28;20241;-70
2021/04/08 16:10:33;;;;;;;16.30;15.00;;;;;;;;;;4998961;28;20686;-70
2021/04/08 16:13:19;;;;;;;16.90;15.43;;;;;;;;;;5011665;28;20219;-70
2021/04/08 16:16:03;;;;;;;16.17;15.07;;;;;;;;;;5008917;28;20262;-70
2021/04/08 16:18:49;;;;;;;16.73;15.43;;;;;;;;;;4991870;28;20247;-69
2021/04/08 16:21:33;;;;;;;16.43;15.13;;;;;;;;;;4994749;28;20252;-69
2021/04/08 16:24:18;;;;;;;18.43;16.93;;;;;;;;;;5011910;28;20694;-70
2021/04/08 16:27:02;;;;;;;17.13;15.70;;;;;;;;;;5010662;28;20439;-70